createdAt,value
2022-12-04T00:01:21.242Z,72.50
2022-12-04T00:03:48.641Z,72.50
2022-12-04T00:06:17.848Z,72.50
2022-12-04T00:08:45.406Z,72.60
2022-12-04T00:11:14.268Z,72.60
2022-12-04T00:13:41.514Z,72.70
2022-12-04T00:16:11.544Z,72.60
2022-12-04T00:18:39.011Z,72.60
2022-12-04T00:21:13.285Z,72.60
2022-12-04T00:23:40.694Z,72.60
2022-12-04T00:26:10.987Z,72.60
2022-12-04T00:28:38.273Z,72.90
2022-12-04T00:31:10.860Z,72.80
2022-12-04T00:33:38.071Z,72.70
2022-12-04T00:36:18.445Z,72.60
2022-12-04T00:38:53.981Z,72.80
2022-12-04T00:41:24.653Z,73.00
2022-12-04T00:43:52.347Z,73.00
2022-12-04T00:46:19.745Z,72.90
2022-12-04T00:48:47.036Z,72.80
2022-12-04T00:51:21.616Z,72.80
2022-12-04T00:53:48.847Z,72.70
2022-12-04T00:56:20.038Z,72.60
2022-12-04T00:58:55.386Z,72.60
2022-12-04T01:01:22.926Z,72.60
2022-12-04T01:03:50.279Z,72.50
2022-12-04T01:06:19.843Z,72.50
2022-12-04T01:08:47.549Z,72.40
2022-12-04T01:11:14.870Z,72.50
2022-12-04T01:13:41.995Z,72.70
2022-12-04T01:16:09.266Z,72.70
2022-12-04T01:18:36.538Z,72.70
2022-12-04T01:21:03.671Z,72.90
2022-12-04T01:23:30.865Z,72.90
2022-12-04T01:25:58.543Z,72.80
2022-12-04T01:28:25.941Z,72.80
2022-12-04T01:31:02.549Z,72.80
2022-12-04T01:33:30.005Z,72.80
2022-12-04T01:35:58.386Z,72.70
2022-12-04T01:38:25.915Z,72.70
2022-12-04T01:40:53.160Z,72.80
2022-12-04T01:43:20.521Z,72.80
2022-12-04T01:45:54.155Z,72.80
2022-12-04T01:48:31.967Z,72.80
2022-12-04T01:51:27.579Z,72.70
2022-12-04T01:53:58.444Z,72.80
2022-12-04T01:56:31.334Z,72.80
2022-12-04T01:58:59.163Z,72.80
2022-12-04T02:01:27.512Z,72.80
2022-12-04T02:03:54.678Z,72.90
2022-12-04T02:06:21.811Z,73.00
2022-12-04T02:08:48.933Z,72.90
2022-12-04T02:11:28.236Z,72.90
2022-12-04T02:14:21.123Z,72.70
2022-12-04T02:16:57.952Z,73.10
2022-12-04T02:19:54.608Z,73.00
2022-12-04T02:22:57.091Z,73.00
2022-12-04T02:25:39.786Z,72.90
2022-12-04T02:28:40.295Z,72.90
2022-12-04T02:31:09.640Z,72.90
2022-12-04T02:33:53.145Z,72.90
2022-12-04T02:36:25.829Z,72.90
2022-12-04T02:39:12.323Z,72.90
2022-12-04T02:41:52.011Z,73.10
2022-12-04T02:44:31.209Z,73.00
2022-12-04T02:47:04.940Z,73.00
2022-12-04T02:49:39.042Z,73.10
2022-12-04T02:52:12.634Z,73.10
2022-12-04T02:54:42.921Z,73.20
2022-12-04T02:57:15.788Z,73.30
2022-12-04T02:59:44.014Z,73.40
2022-12-04T03:02:30.599Z,73.30
2022-12-04T03:04:58.244Z,73.40
2022-12-04T03:07:36.148Z,73.40
2022-12-04T03:10:11.090Z,73.40
2022-12-04T03:12:52.390Z,73.30
2022-12-04T03:16:18.948Z,73.20
2022-12-04T03:18:59.611Z,73.20
2022-12-04T03:21:29.781Z,73.20
2022-12-04T03:24:39.518Z,73.20
2022-12-04T03:27:34.127Z,73.20
2022-12-04T03:30:09.120Z,73.20
2022-12-04T03:33:01.206Z,73.20
2022-12-04T03:35:30.077Z,73.10
2022-12-04T03:38:18.084Z,73.10
2022-12-04T03:40:48.440Z,73.00
2022-12-04T03:43:20.876Z,73.00
2022-12-04T03:46:15.788Z,73.00
2022-12-04T03:48:55.585Z,73.10
2022-12-04T03:51:35.237Z,73.10
2022-12-04T03:54:16.694Z,73.20
2022-12-04T03:56:54.477Z,73.20
2022-12-04T03:59:31.684Z,73.20
2022-12-04T04:01:59.851Z,73.30
2022-12-04T04:04:34.969Z,73.50
2022-12-04T04:07:14.555Z,73.50
2022-12-04T04:09:44.305Z,73.50
2022-12-04T04:12:23.198Z,73.50
2022-12-04T04:15:27.077Z,73.40
2022-12-04T04:18:13.089Z,73.40
2022-12-04T04:21:16.646Z,73.30
2022-12-04T04:24:04.536Z,73.30
2022-12-04T04:26:34.321Z,73.20
2022-12-04T04:29:01.513Z,73.40
2022-12-04T04:31:44.168Z,73.60
2022-12-04T04:34:51.618Z,73.60
2022-12-04T04:37:32.424Z,73.50
2022-12-04T04:40:30.374Z,73.50
2022-12-04T04:43:17.449Z,73.50
2022-12-04T04:45:58.836Z,73.50
2022-12-04T04:48:39.337Z,73.60
2022-12-04T04:51:06.520Z,73.60
2022-12-04T04:53:45.925Z,73.50
2022-12-04T04:56:13.281Z,73.50
2022-12-04T04:58:42.580Z,73.50
2022-12-04T05:01:14.877Z,73.60
2022-12-04T05:03:42.223Z,73.60
2022-12-04T05:06:09.494Z,73.50
2022-12-04T05:08:36.727Z,73.50
2022-12-04T05:11:04.156Z,73.40
2022-12-04T05:13:31.813Z,73.40
2022-12-04T05:16:04.700Z,73.50
2022-12-04T05:18:32.237Z,73.60
2022-12-04T05:20:59.354Z,73.70
2022-12-04T05:23:26.557Z,73.90
2022-12-04T05:26:00.910Z,73.80
2022-12-04T05:28:28.121Z,73.70
2022-12-04T05:31:00.003Z,73.50
2022-12-04T05:33:27.205Z,73.60
2022-12-04T05:36:01.808Z,73.50
2022-12-04T05:38:29.229Z,73.70
2022-12-04T05:40:59.100Z,73.70
2022-12-04T05:43:26.249Z,73.60
2022-12-04T05:45:53.467Z,73.60
2022-12-04T05:48:21.582Z,73.60
2022-12-04T05:50:48.728Z,73.50
2022-12-04T05:53:16.399Z,73.50
2022-12-04T05:55:43.525Z,73.40
2022-12-04T05:58:12.269Z,73.40
2022-12-04T06:00:39.473Z,73.30
2022-12-04T06:03:06.712Z,73.30
2022-12-04T06:05:33.929Z,73.30
2022-12-04T06:08:01.184Z,73.30
2022-12-04T06:10:29.330Z,73.30
2022-12-04T06:12:57.789Z,73.30
2022-12-04T06:15:25.010Z,73.30
2022-12-04T06:17:52.147Z,73.20
2022-12-04T06:20:19.301Z,73.30
2022-12-04T06:22:46.703Z,73.30
2022-12-04T06:25:13.808Z,73.40
2022-12-04T06:27:40.941Z,73.40
2022-12-04T06:30:08.856Z,73.30
2022-12-04T06:32:36.032Z,73.20
2022-12-04T06:35:04.206Z,73.10
2022-12-04T06:37:31.463Z,73.10
2022-12-04T06:39:58.923Z,73.00
2022-12-04T06:42:26.420Z,73.00
2022-12-04T06:44:53.567Z,73.10
2022-12-04T06:47:20.733Z,73.20
2022-12-04T06:49:50.967Z,73.10
2022-12-04T06:52:18.339Z,73.40
2022-12-04T06:54:45.490Z,73.50
2022-12-04T06:57:12.661Z,73.80
2022-12-04T06:59:39.925Z,74.00
2022-12-04T07:02:07.235Z,74.00
2022-12-04T07:04:34.415Z,73.80
2022-12-04T07:07:01.575Z,73.70
2022-12-04T07:09:28.884Z,73.60
2022-12-04T07:11:56.105Z,73.60
2022-12-04T07:14:23.249Z,73.60
2022-12-04T07:16:50.469Z,73.50
2022-12-04T07:19:17.793Z,73.50
2022-12-04T07:21:44.904Z,73.60
2022-12-04T07:24:16.811Z,73.60
2022-12-04T07:26:44.057Z,73.70
2022-12-04T07:29:11.546Z,73.70
2022-12-04T07:31:41.531Z,73.80
2022-12-04T07:34:08.711Z,73.80
2022-12-04T07:36:35.895Z,73.90
2022-12-04T07:39:03.065Z,73.90
2022-12-04T07:41:30.196Z,73.80
2022-12-04T07:43:57.354Z,73.80
2022-12-04T07:46:26.687Z,73.90
2022-12-04T07:48:57.666Z,74.00
2022-12-04T07:51:27.371Z,74.00
2022-12-04T07:53:55.010Z,74.00
2022-12-04T07:56:22.127Z,74.10
2022-12-04T07:58:49.490Z,74.20
2022-12-04T08:01:20.261Z,74.20
2022-12-04T08:03:49.398Z,74.30
2022-12-04T08:06:21.762Z,74.30
2022-12-04T08:08:49.082Z,74.40
2022-12-04T08:11:22.473Z,74.30
2022-12-04T08:13:54.639Z,74.30
2022-12-04T08:16:21.927Z,74.10
2022-12-04T08:18:49.455Z,74.30
2022-12-04T08:21:23.299Z,74.40
2022-12-04T08:23:54.911Z,74.30
2022-12-04T08:26:23.619Z,74.20
2022-12-04T08:28:53.823Z,74.20
2022-12-04T08:31:26.511Z,74.10
2022-12-04T08:33:55.389Z,74.10
2022-12-04T08:36:22.801Z,74.30
2022-12-04T08:38:54.363Z,74.50
2022-12-04T08:41:24.050Z,75.10
2022-12-04T08:43:54.760Z,75.20
2022-12-04T08:46:22.412Z,75.00
2022-12-04T08:48:49.903Z,75.00
2022-12-04T08:51:22.443Z,75.10
2022-12-04T08:54:01.118Z,75.10
2022-12-04T08:56:38.857Z,75.10
2022-12-04T08:59:10.465Z,75.00
2022-12-04T09:01:37.708Z,74.90
2022-12-04T09:04:06.245Z,75.00
2022-12-04T09:06:35.720Z,74.90
2022-12-04T09:09:03.129Z,74.80
2022-12-04T09:11:32.498Z,74.60
2022-12-04T09:14:01.338Z,74.40
2022-12-04T09:16:36.234Z,74.20
2022-12-04T09:19:03.623Z,74.10
2022-12-04T09:21:30.818Z,74.00
2022-12-04T09:23:59.171Z,74.00
2022-12-04T09:26:31.660Z,73.90
2022-12-04T09:29:00.309Z,73.90
2022-12-04T09:31:27.605Z,73.80
2022-12-04T09:33:54.909Z,73.70
2022-12-04T09:36:22.074Z,73.50
2022-12-04T09:38:51.437Z,73.40
2022-12-04T09:41:36.940Z,73.40
2022-12-04T09:44:23.250Z,73.20
2022-12-04T09:47:05.134Z,73.30
2022-12-04T09:50:04.237Z,73.10
2022-12-04T09:53:23.238Z,72.90
2022-12-04T09:56:04.666Z,72.90
2022-12-04T09:58:55.096Z,72.90
2022-12-04T10:01:25.880Z,72.70
2022-12-04T10:03:53.468Z,72.80
2022-12-04T10:06:27.671Z,72.70
2022-12-04T10:09:25.264Z,72.70
2022-12-04T10:12:09.889Z,72.70
2022-12-04T10:15:10.948Z,72.70
2022-12-04T10:17:52.947Z,72.60
2022-12-04T10:21:02.075Z,72.70
2022-12-04T10:23:51.685Z,72.80
2022-12-04T10:26:22.893Z,72.90
2022-12-04T10:29:06.506Z,72.90
2022-12-04T10:31:34.410Z,73.00
2022-12-04T10:34:19.885Z,73.00
2022-12-04T10:36:53.037Z,73.10
2022-12-04T10:39:28.529Z,73.10
2022-12-04T10:42:20.216Z,73.00
2022-12-04T10:44:50.044Z,73.00
2022-12-04T10:47:17.408Z,72.90
2022-12-04T10:49:44.578Z,73.00
2022-12-04T10:52:13.118Z,72.90
2022-12-04T10:54:50.446Z,72.90
2022-12-04T10:57:17.990Z,72.90
2022-12-04T10:59:55.164Z,72.80
2022-12-04T11:02:28.282Z,72.70
2022-12-04T11:05:03.943Z,72.70
2022-12-04T11:07:37.258Z,72.70
2022-12-04T11:10:26.642Z,72.70
2022-12-04T11:12:57.445Z,72.60
2022-12-04T11:15:25.048Z,72.60
2022-12-04T11:17:55.105Z,72.60
2022-12-04T11:20:24.882Z,72.50
2022-12-04T11:22:57.347Z,72.50
2022-12-04T11:25:27.435Z,72.60
2022-12-04T11:27:56.747Z,72.60
2022-12-04T11:30:35.570Z,72.60
2022-12-04T11:33:03.705Z,72.40
2022-12-04T11:35:31.108Z,72.40
2022-12-04T11:38:01.469Z,72.40
2022-12-04T11:40:28.881Z,72.30
2022-12-04T11:43:14.096Z,72.20
2022-12-04T11:45:41.791Z,72.10
2022-12-04T11:48:17.421Z,72.10
2022-12-04T11:51:05.430Z,72.10
2022-12-04T11:54:07.238Z,72.10
2022-12-04T11:56:36.880Z,72.10
2022-12-04T11:59:09.593Z,72.00
2022-12-04T12:02:19.963Z,72.00
2022-12-04T12:05:23.378Z,71.90
2022-12-04T12:08:02.773Z,72.00
2022-12-04T12:10:55.690Z,72.10
2022-12-04T12:13:53.227Z,72.10
2022-12-04T12:19:29.587Z,72.30
2022-12-04T12:22:27.719Z,72.30
2022-12-04T12:25:19.002Z,72.30
2022-12-04T12:28:17.076Z,72.40
2022-12-04T12:31:32.748Z,72.40
2022-12-04T12:34:14.452Z,72.40
2022-12-04T12:36:45.458Z,72.50
2022-12-04T12:39:38.331Z,72.60
2022-12-04T12:42:05.654Z,72.70
2022-12-04T12:44:51.965Z,72.70
2022-12-04T12:47:26.463Z,72.70
2022-12-04T12:50:04.949Z,72.70
2022-12-04T12:52:39.120Z,72.70
2022-12-04T12:55:25.120Z,72.70
2022-12-04T12:58:25.659Z,72.80
2022-12-04T13:01:19.695Z,72.90
2022-12-04T13:04:11.508Z,72.90
2022-12-04T13:06:44.851Z,73.00
2022-12-04T13:09:35.148Z,73.00
2022-12-04T13:12:10.491Z,73.00
2022-12-04T13:14:37.629Z,73.10
2022-12-04T13:17:20.456Z,73.10
2022-12-04T13:19:57.270Z,73.20
2022-12-04T13:22:39.468Z,73.20
2022-12-04T13:25:38.638Z,73.20
2022-12-04T13:28:33.643Z,73.30
2022-12-04T13:31:31.824Z,73.50
2022-12-04T13:34:07.911Z,73.30
2022-12-04T13:37:01.943Z,73.70
2022-12-04T13:40:17.573Z,73.80
2022-12-04T13:42:44.744Z,73.80
2022-12-04T13:45:28.909Z,73.80
2022-12-04T13:48:00.702Z,73.90
2022-12-04T13:50:34.179Z,73.90
2022-12-04T13:53:01.390Z,73.80
2022-12-04T13:55:32.616Z,73.70
2022-12-04T13:58:11.962Z,73.70
2022-12-04T14:00:43.996Z,73.70
2022-12-04T14:03:25.140Z,73.80
2022-12-04T14:05:52.466Z,74.10
2022-12-04T14:08:19.496Z,74.20
2022-12-04T14:11:12.174Z,74.40
2022-12-04T14:13:51.533Z,74.40
2022-12-04T14:16:27.021Z,74.70
2022-12-04T14:18:56.496Z,74.70
2022-12-04T14:21:23.927Z,74.90
2022-12-04T14:23:51.717Z,75.00
2022-12-04T14:27:10.005Z,75.20
2022-12-04T14:29:28.234Z,75.40
2022-12-04T14:31:56.335Z,75.50
2022-12-04T14:34:27.134Z,75.40
2022-12-04T14:36:55.258Z,75.50
2022-12-04T14:39:45.326Z,75.50
2022-12-04T14:42:23.367Z,75.80
2022-12-04T14:45:01.131Z,75.80
2022-12-04T14:48:12.560Z,76.00
2022-12-04T14:51:14.661Z,76.00
2022-12-04T14:54:09.338Z,76.00
2022-12-04T14:57:41.114Z,76.10
2022-12-04T15:00:19.781Z,76.20
2022-12-04T15:02:47.377Z,76.30
2022-12-04T15:05:28.553Z,76.10
2022-12-04T15:07:59.565Z,76.30
2022-12-04T15:10:48.208Z,76.30
2022-12-04T15:13:33.095Z,76.30
2022-12-04T15:16:21.595Z,76.40
2022-12-04T15:19:01.116Z,76.40
2022-12-04T15:21:37.843Z,76.50
2022-12-04T15:24:09.939Z,76.40
2022-12-04T15:26:37.511Z,76.40
2022-12-04T15:29:05.716Z,76.40
2022-12-04T15:31:42.394Z,76.50
2022-12-04T15:34:17.807Z,76.70
2022-12-04T15:36:48.702Z,76.90
2022-12-04T15:39:25.754Z,76.90
2022-12-04T15:42:03.614Z,76.80
2022-12-04T15:44:33.127Z,76.70
2022-12-04T15:47:15.090Z,76.80
2022-12-04T15:49:44.848Z,76.90
2022-12-04T15:52:22.653Z,76.80
2022-12-04T15:55:17.738Z,76.90
2022-12-04T15:58:03.119Z,76.90
2022-12-04T16:00:36.357Z,77.00
2022-12-04T16:03:33.368Z,77.00
2022-12-04T16:06:08.211Z,77.00
2022-12-04T16:08:42.147Z,77.10
2022-12-04T16:11:18.461Z,77.20
2022-12-04T16:13:45.804Z,77.20
2022-12-04T16:16:16.365Z,77.10
2022-12-04T16:18:43.557Z,77.30
2022-12-04T16:21:18.973Z,77.30
2022-12-04T16:23:46.424Z,77.40
2022-12-04T16:26:18.015Z,77.20
2022-12-04T16:28:45.345Z,77.10
2022-12-04T16:31:13.071Z,77.10
2022-12-04T16:33:40.463Z,77.10
2022-12-04T16:36:11.167Z,77.10
2022-12-04T16:38:38.268Z,77.20
2022-12-04T16:41:05.716Z,77.30
2022-12-04T16:43:32.953Z,77.30
2022-12-04T16:46:01.256Z,77.40
2022-12-04T16:48:29.670Z,77.60
2022-12-04T16:50:56.884Z,77.70
2022-12-04T16:53:24.041Z,77.70
2022-12-04T16:55:52.405Z,77.70
2022-12-04T16:58:20.068Z,77.50
2022-12-04T17:00:55.006Z,77.40
2022-12-04T17:03:29.010Z,77.40
2022-12-04T17:05:56.332Z,77.40
2022-12-04T17:08:23.540Z,77.30
2022-12-04T17:10:51.446Z,77.30
2022-12-04T17:13:21.956Z,77.20
2022-12-04T17:15:49.584Z,77.40
2022-12-04T17:18:20.975Z,77.40
2022-12-04T17:20:48.823Z,77.40
2022-12-04T17:23:18.495Z,77.50
2022-12-04T17:25:45.575Z,77.80
2022-12-04T17:28:12.761Z,77.90
2022-12-04T17:30:39.917Z,77.90
2022-12-04T17:33:07.047Z,77.90
2022-12-04T17:35:34.209Z,77.90
2022-12-04T17:38:05.952Z,77.60
2022-12-04T17:40:33.700Z,77.70
2022-12-04T17:43:00.913Z,77.60
2022-12-04T17:45:28.605Z,77.70
2022-12-04T17:47:56.731Z,77.60
2022-12-04T17:50:23.875Z,77.70
2022-12-04T17:52:53.372Z,77.60
2022-12-04T17:55:20.554Z,77.60
2022-12-04T17:57:47.769Z,77.60
2022-12-04T18:00:15.192Z,77.50
2022-12-04T18:02:42.620Z,77.50
2022-12-04T18:05:10.229Z,77.50
2022-12-04T18:07:37.495Z,77.60
2022-12-04T18:10:07.460Z,77.60
2022-12-04T18:12:34.615Z,77.60
2022-12-04T18:15:01.748Z,77.60
2022-12-04T18:17:29.074Z,77.70
2022-12-04T18:20:01.194Z,77.80
2022-12-04T18:22:31.272Z,77.90
2022-12-04T18:24:58.424Z,78.00
2022-12-04T18:27:25.574Z,77.90
2022-12-04T18:29:52.736Z,77.80
2022-12-04T18:32:19.879Z,77.90
2022-12-04T18:34:47.011Z,78.00
2022-12-04T18:37:14.245Z,77.90
2022-12-04T18:39:41.480Z,77.90
2022-12-04T18:42:09.017Z,77.80
2022-12-04T18:44:36.222Z,77.80
2022-12-04T18:47:03.417Z,77.70
2022-12-04T18:49:30.723Z,77.90
2022-12-04T18:51:58.948Z,78.00
2022-12-04T18:54:26.188Z,77.80
2022-12-04T18:56:53.310Z,77.60
2022-12-04T18:59:26.384Z,77.40
2022-12-04T19:01:53.936Z,77.20
2022-12-04T19:04:23.152Z,77.10
2022-12-04T19:06:53.266Z,77.00
2022-12-04T19:09:35.729Z,77.20
2022-12-04T19:12:11.789Z,77.20
2022-12-04T19:14:39.815Z,77.40
2022-12-04T19:17:07.192Z,77.30
2022-12-04T19:19:34.526Z,77.60
2022-12-04T19:22:02.233Z,77.60
2022-12-04T19:24:29.374Z,77.70
2022-12-04T19:27:32.155Z,77.90
2022-12-04T19:29:57.735Z,77.90
2022-12-04T19:32:25.383Z,77.60
2022-12-04T19:34:52.602Z,77.50
2022-12-04T19:37:19.773Z,77.60
2022-12-04T19:39:46.917Z,77.60
2022-12-04T19:42:14.053Z,77.40
2022-12-04T19:44:49.670Z,77.60
2022-12-04T19:47:18.287Z,77.80
2022-12-04T19:49:46.445Z,77.60
2022-12-04T19:52:13.894Z,77.80
2022-12-04T19:54:41.125Z,77.90
2022-12-04T19:57:08.301Z,77.70
2022-12-04T19:59:38.556Z,77.70
2022-12-04T20:02:10.818Z,77.70
2022-12-04T20:04:39.183Z,77.70
2022-12-04T20:07:06.343Z,77.80
2022-12-04T20:09:33.586Z,77.70
2022-12-04T20:12:00.781Z,77.60
2022-12-04T20:14:27.999Z,77.50
2022-12-04T20:16:55.249Z,77.70
2022-12-04T20:19:22.541Z,77.70
2022-12-04T20:21:54.813Z,77.90
2022-12-04T20:24:24.930Z,78.00
2022-12-04T20:26:52.054Z,78.00
2022-12-04T20:29:19.276Z,78.20
2022-12-04T20:31:46.602Z,78.10
2022-12-04T20:34:16.520Z,78.00
2022-12-04T20:36:45.012Z,78.20
2022-12-04T20:39:13.209Z,78.30
2022-12-04T20:41:40.613Z,78.30
2022-12-04T20:44:09.146Z,78.30
2022-12-04T20:46:38.777Z,78.20
2022-12-04T20:49:08.813Z,78.10
2022-12-04T20:51:42.052Z,78.10
2022-12-04T20:54:12.394Z,78.30
2022-12-04T20:56:42.160Z,78.10
2022-12-04T20:59:13.884Z,77.90
2022-12-04T21:01:41.288Z,77.70
2022-12-04T21:04:08.565Z,77.40
2022-12-04T21:06:38.138Z,77.20
2022-12-04T21:09:13.930Z,77.10
2022-12-04T21:11:47.249Z,77.10
2022-12-04T21:14:35.669Z,77.20
2022-12-04T21:17:03.123Z,77.00
2022-12-04T21:19:30.295Z,77.00
2022-12-04T21:21:57.663Z,77.00
2022-12-04T21:24:26.686Z,77.10
2022-12-04T21:26:54.932Z,77.20
2022-12-04T21:29:22.590Z,77.00
2022-12-04T21:31:49.827Z,77.00
2022-12-04T21:34:22.786Z,77.00
2022-12-04T21:36:49.917Z,76.90
2022-12-04T21:39:17.067Z,76.80
2022-12-04T21:42:03.767Z,76.80
2022-12-04T21:44:45.306Z,77.00
2022-12-04T21:47:12.866Z,77.00
2022-12-04T21:49:41.230Z,77.00
2022-12-04T21:52:08.464Z,77.10
2022-12-04T21:54:35.536Z,77.20
2022-12-04T21:57:02.705Z,76.90
2022-12-04T21:59:29.837Z,76.70
2022-12-04T22:01:56.977Z,76.80
2022-12-04T22:04:24.198Z,77.10
2022-12-04T22:06:51.355Z,77.10
2022-12-04T22:09:18.526Z,77.10
2022-12-04T22:11:46.851Z,77.20
2022-12-04T22:14:16.355Z,77.10
2022-12-04T22:16:43.771Z,77.00
2022-12-04T22:19:12.013Z,76.80
2022-12-04T22:21:39.519Z,76.90
2022-12-04T22:24:07.786Z,76.90
2022-12-04T22:26:34.882Z,76.80
2022-12-04T22:29:11.255Z,76.70
2022-12-04T22:31:49.573Z,76.50
2022-12-04T22:34:16.729Z,76.50
2022-12-04T22:36:43.912Z,76.60
2022-12-04T22:39:11.461Z,76.50
2022-12-04T22:41:38.687Z,76.30
2022-12-04T22:44:06.107Z,76.30
2022-12-04T22:46:33.630Z,76.30
2022-12-04T22:49:00.934Z,76.30
2022-12-04T22:51:28.170Z,76.20
2022-12-04T22:53:57.148Z,76.20
2022-12-04T22:56:31.549Z,76.10
2022-12-04T22:58:59.099Z,76.10
2022-12-04T23:01:28.885Z,75.90
2022-12-04T23:03:56.062Z,75.90
2022-12-04T23:06:27.047Z,75.90
2022-12-04T23:08:59.400Z,75.90
2022-12-04T23:11:26.797Z,75.90
2022-12-04T23:14:00.348Z,75.90
2022-12-04T23:16:29.004Z,75.90
2022-12-04T23:18:56.227Z,75.90
2022-12-04T23:21:23.730Z,75.90
2022-12-04T23:23:51.968Z,75.90
2022-12-04T23:26:29.459Z,76.00
2022-12-04T23:28:57.758Z,76.00
2022-12-04T23:31:25.242Z,76.10
2022-12-04T23:33:52.442Z,76.30
2022-12-04T23:36:20.076Z,76.40
2022-12-04T23:38:47.272Z,76.30
2022-12-04T23:41:26.254Z,76.30
2022-12-04T23:43:53.707Z,76.20
2022-12-04T23:46:25.951Z,76.20
2022-12-04T23:48:53.316Z,76.20
2022-12-04T23:51:20.572Z,76.30
2022-12-04T23:53:47.926Z,76.50
2022-12-04T23:56:28.258Z,76.60
2022-12-04T23:58:56.841Z,76.50
